sensor_id;sensor_type;location;lat;lon;timestamp;temperature;humidity
4687;DHT22;2357;47.316;-1.348;2023-09-18T00:01:39;19.80;99.90
4687;DHT22;2357;47.316;-1.348;2023-09-18T00:04:05;19.80;99.90
4687;DHT22;2357;47.316;-1.348;2023-09-18T00:06:32;19.80;99.90
4687;DHT22;2357;47.316;-1.348;2023-09-18T00:08:58;19.90;99.90
4687;DHT22;2357;47.316;-1.348;2023-09-18T00:11:24;19.90;99.90
4687;DHT22;2357;47.316;-1.348;2023-09-18T00:13:50;19.90;99.90
4687;DHT22;2357;47.316;-1.348;2023-09-18T00:16:15;19.80;99.90
4687;DHT22;2357;47.316;-1.348;2023-09-18T00:18:42;19.80;99.90
4687;DHT22;2357;47.316;-1.348;2023-09-18T00:21:10;19.70;99.90
4687;DHT22;2357;47.316;-1.348;2023-09-18T00:23:36;19.70;99.90
4687;DHT22;2357;47.316;-1.348;2023-09-18T00:26:03;19.70;99.90
4687;DHT22;2357;47.316;-1.348;2023-09-18T00:28:29;19.70;99.90
4687;DHT22;2357;47.316;-1.348;2023-09-18T00:30:54;19.70;99.90
4687;DHT22;2357;47.316;-1.348;2023-09-18T00:33:20;19.60;99.90
4687;DHT22;2357;47.316;-1.348;2023-09-18T00:35:50;19.60;99.90
4687;DHT22;2357;47.316;-1.348;2023-09-18T00:38:16;19.60;99.90
4687;DHT22;2357;47.316;-1.348;2023-09-18T00:40:42;19.60;99.90
4687;DHT22;2357;47.316;-1.348;2023-09-18T00:43:10;19.50;99.90
4687;DHT22;2357;47.316;-1.348;2023-09-18T00:45:41;19.40;99.90
4687;DHT22;2357;47.316;-1.348;2023-09-18T00:48:07;19.40;99.90
4687;DHT22;2357;47.316;-1.348;2023-09-18T00:50:33;19.30;99.90
4687;DHT22;2357;47.316;-1.348;2023-09-18T00:53:02;19.30;99.90
4687;DHT22;2357;47.316;-1.348;2023-09-18T00:55:29;19.30;99.90
4687;DHT22;2357;47.316;-1.348;2023-09-18T00:57:56;19.30;99.90
4687;DHT22;2357;47.316;-1.348;2023-09-18T01:00:22;19.20;99.90
4687;DHT22;2357;47.316;-1.348;2023-09-18T01:02:48;19.10;99.90
4687;DHT22;2357;47.316;-1.348;2023-09-18T01:05:14;19.10;99.90
4687;DHT22;2357;47.316;-1.348;2023-09-18T01:07:42;19.10;99.90
4687;DHT22;2357;47.316;-1.348;2023-09-18T01:10:08;19.00;99.90
4687;DHT22;2357;47.316;-1.348;2023-09-18T01:12:53;19.10;99.90
4687;DHT22;2357;47.316;-1.348;2023-09-18T01:15:24;19.20;99.90
4687;DHT22;2357;47.316;-1.348;2023-09-18T01:17:52;19.10;99.90
4687;DHT22;2357;47.316;-1.348;2023-09-18T01:20:18;19.10;99.90
4687;DHT22;2357;47.316;-1.348;2023-09-18T01:22:43;19.00;99.90
4687;DHT22;2357;47.316;-1.348;2023-09-18T01:25:09;19.00;99.90
4687;DHT22;2357;47.316;-1.348;2023-09-18T01:27:35;19.00;99.90
4687;DHT22;2357;47.316;-1.348;2023-09-18T01:30:01;18.80;99.90
4687;DHT22;2357;47.316;-1.348;2023-09-18T01:32:30;18.90;99.90
4687;DHT22;2357;47.316;-1.348;2023-09-18T01:34:57;18.80;99.90
4687;DHT22;2357;47.316;-1.348;2023-09-18T01:37:30;18.80;99.90
4687;DHT22;2357;47.316;-1.348;2023-09-18T01:39:56;18.90;99.90
4687;DHT22;2357;47.316;-1.348;2023-09-18T01:42:26;18.80;99.90
4687;DHT22;2357;47.316;-1.348;2023-09-18T01:44:53;18.90;99.90
4687;DHT22;2357;47.316;-1.348;2023-09-18T01:47:20;18.80;99.90
4687;DHT22;2357;47.316;-1.348;2023-09-18T01:49:47;18.90;99.90
4687;DHT22;2357;47.316;-1.348;2023-09-18T01:52:12;18.70;99.90
4687;DHT22;2357;47.316;-1.348;2023-09-18T01:54:38;18.80;99.90
4687;DHT22;2357;47.316;-1.348;2023-09-18T01:57:04;18.80;99.90
4687;DHT22;2357;47.316;-1.348;2023-09-18T01:59:30;18.80;99.90
4687;DHT22;2357;47.316;-1.348;2023-09-18T02:01:56;18.90;99.90
4687;DHT22;2357;47.316;-1.348;2023-09-18T02:04:22;18.80;99.90
4687;DHT22;2357;47.316;-1.348;2023-09-18T02:06:50;18.70;99.90
4687;DHT22;2357;47.316;-1.348;2023-09-18T02:09:16;18.80;99.90
4687;DHT22;2357;47.316;-1.348;2023-09-18T02:11:43;18.70;99.90
4687;DHT22;2357;47.316;-1.348;2023-09-18T02:14:10;18.70;99.90
4687;DHT22;2357;47.316;-1.348;2023-09-18T02:16:39;18.70;99.90
4687;DHT22;2357;47.316;-1.348;2023-09-18T02:19:09;18.70;99.90
4687;DHT22;2357;47.316;-1.348;2023-09-18T02:21:35;18.90;99.90
4687;DHT22;2357;47.316;-1.348;2023-09-18T02:24:01;18.90;99.90
4687;DHT22;2357;47.316;-1.348;2023-09-18T02:26:27;18.90;99.90
4687;DHT22;2357;47.316;-1.348;2023-09-18T02:28:54;18.80;99.90
4687;DHT22;2357;47.316;-1.348;2023-09-18T02:31:22;18.80;99.90
4687;DHT22;2357;47.316;-1.348;2023-09-18T02:33:48;18.80;99.90
4687;DHT22;2357;47.316;-1.348;2023-09-18T02:36:14;18.80;99.90
4687;DHT22;2357;47.316;-1.348;2023-09-18T02:38:39;18.90;99.90
4687;DHT22;2357;47.316;-1.348;2023-09-18T02:41:05;18.90;99.90
4687;DHT22;2357;47.316;-1.348;2023-09-18T02:43:31;18.90;99.90
4687;DHT22;2357;47.316;-1.348;2023-09-18T02:45:57;19.00;99.90
4687;DHT22;2357;47.316;-1.348;2023-09-18T02:48:23;19.00;99.90
4687;DHT22;2357;47.316;-1.348;2023-09-18T02:50:48;19.00;99.90
4687;DHT22;2357;47.316;-1.348;2023-09-18T02:53:24;19.00;99.90
4687;DHT22;2357;47.316;-1.348;2023-09-18T02:55:54;18.90;99.90
4687;DHT22;2357;47.316;-1.348;2023-09-18T02:58:21;18.90;99.90
4687;DHT22;2357;47.316;-1.348;2023-09-18T03:00:49;19.00;99.90
4687;DHT22;2357;47.316;-1.348;2023-09-18T03:03:15;19.00;99.90
4687;DHT22;2357;47.316;-1.348;2023-09-18T03:05:42;18.90;99.90
4687;DHT22;2357;47.316;-1.348;2023-09-18T03:08:08;19.00;99.90
4687;DHT22;2357;47.316;-1.348;2023-09-18T03:10:35;19.00;99.90
4687;DHT22;2357;47.316;-1.348;2023-09-18T03:13:02;19.00;99.90
4687;DHT22;2357;47.316;-1.348;2023-09-18T03:15:28;19.00;99.90
4687;DHT22;2357;47.316;-1.348;2023-09-18T03:17:54;19.00;99.90
4687;DHT22;2357;47.316;-1.348;2023-09-18T03:20:25;18.90;99.90
4687;DHT22;2357;47.316;-1.348;2023-09-18T03:22:53;19.00;99.90
4687;DHT22;2357;47.316;-1.348;2023-09-18T03:25:19;19.00;99.90
4687;DHT22;2357;47.316;-1.348;2023-09-18T03:27:44;19.00;99.90
4687;DHT22;2357;47.316;-1.348;2023-09-18T03:30:10;19.10;99.90
4687;DHT22;2357;47.316;-1.348;2023-09-18T03:32:38;19.00;99.90
4687;DHT22;2357;47.316;-1.348;2023-09-18T03:35:04;19.00;99.90
4687;DHT22;2357;47.316;-1.348;2023-09-18T03:37:30;19.00;99.90
4687;DHT22;2357;47.316;-1.348;2023-09-18T03:39:55;19.00;99.90
4687;DHT22;2357;47.316;-1.348;2023-09-18T03:42:21;19.00;99.90
4687;DHT22;2357;47.316;-1.348;2023-09-18T03:44:47;18.90;99.90
4687;DHT22;2357;47.316;-1.348;2023-09-18T03:47:12;18.90;99.90
4687;DHT22;2357;47.316;-1.348;2023-09-18T03:49:38;19.00;99.90
4687;DHT22;2357;47.316;-1.348;2023-09-18T03:52:03;18.90;99.90
4687;DHT22;2357;47.316;-1.348;2023-09-18T03:54:29;18.90;99.90
4687;DHT22;2357;47.316;-1.348;2023-09-18T03:56:55;18.90;99.90
4687;DHT22;2357;47.316;-1.348;2023-09-18T03:59:20;18.90;99.90
4687;DHT22;2357;47.316;-1.348;2023-09-18T04:01:46;18.90;99.90
4687;DHT22;2357;47.316;-1.348;2023-09-18T04:04:12;18.90;99.90
4687;DHT22;2357;47.316;-1.348;2023-09-18T04:06:46;18.80;99.90
4687;DHT22;2357;47.316;-1.348;2023-09-18T04:09:12;18.80;99.90
4687;DHT22;2357;47.316;-1.348;2023-09-18T04:11:37;18.80;99.90
4687;DHT22;2357;47.316;-1.348;2023-09-18T04:14:03;18.90;99.90
4687;DHT22;2357;47.316;-1.348;2023-09-18T04:16:29;19.00;99.90
4687;DHT22;2357;47.316;-1.348;2023-09-18T04:19:01;18.90;99.90
4687;DHT22;2357;47.316;-1.348;2023-09-18T04:21:27;18.80;99.90
4687;DHT22;2357;47.316;-1.348;2023-09-18T04:23:55;18.90;99.90
4687;DHT22;2357;47.316;-1.348;2023-09-18T04:26:23;18.80;99.90
4687;DHT22;2357;47.316;-1.348;2023-09-18T04:28:49;18.80;99.90
4687;DHT22;2357;47.316;-1.348;2023-09-18T04:31:15;18.70;99.90
4687;DHT22;2357;47.316;-1.348;2023-09-18T04:33:41;18.70;99.90
4687;DHT22;2357;47.316;-1.348;2023-09-18T04:36:07;18.70;99.90
4687;DHT22;2357;47.316;-1.348;2023-09-18T04:38:34;18.70;99.90
4687;DHT22;2357;47.316;-1.348;2023-09-18T04:41:00;18.70;99.90
4687;DHT22;2357;47.316;-1.348;2023-09-18T04:43:26;18.70;99.90
4687;DHT22;2357;47.316;-1.348;2023-09-18T04:45:55;18.70;99.90
4687;DHT22;2357;47.316;-1.348;2023-09-18T04:48:21;18.70;99.90
4687;DHT22;2357;47.316;-1.348;2023-09-18T04:50:46;18.80;99.90
4687;DHT22;2357;47.316;-1.348;2023-09-18T04:53:13;18.80;99.90
4687;DHT22;2357;47.316;-1.348;2023-09-18T04:55:39;18.90;99.90
4687;DHT22;2357;47.316;-1.348;2023-09-18T04:58:05;18.80;99.90
4687;DHT22;2357;47.316;-1.348;2023-09-18T05:00:32;18.80;99.90
4687;DHT22;2357;47.316;-1.348;2023-09-18T05:02:59;18.80;99.90
4687;DHT22;2357;47.316;-1.348;2023-09-18T05:05:28;18.90;99.90
4687;DHT22;2357;47.316;-1.348;2023-09-18T05:07:54;18.90;99.90
4687;DHT22;2357;47.316;-1.348;2023-09-18T05:10:20;18.80;99.90
4687;DHT22;2357;47.316;-1.348;2023-09-18T05:12:46;18.80;99.90
4687;DHT22;2357;47.316;-1.348;2023-09-18T05:15:11;18.80;99.90
4687;DHT22;2357;47.316;-1.348;2023-09-18T05:17:46;18.80;99.90
4687;DHT22;2357;47.316;-1.348;2023-09-18T05:20:13;18.80;99.90
4687;DHT22;2357;47.316;-1.348;2023-09-18T05:22:41;18.80;99.90
4687;DHT22;2357;47.316;-1.348;2023-09-18T05:25:08;18.80;99.90
4687;DHT22;2357;47.316;-1.348;2023-09-18T05:27:35;18.80;99.90
4687;DHT22;2357;47.316;-1.348;2023-09-18T05:30:01;18.80;99.90
4687;DHT22;2357;47.316;-1.348;2023-09-18T05:32:27;18.80;99.90
4687;DHT22;2357;47.316;-1.348;2023-09-18T05:34:52;18.80;99.90
4687;DHT22;2357;47.316;-1.348;2023-09-18T05:37:18;18.80;99.90
4687;DHT22;2357;47.316;-1.348;2023-09-18T05:39:44;18.80;99.90
4687;DHT22;2357;47.316;-1.348;2023-09-18T05:42:09;18.80;99.90
4687;DHT22;2357;47.316;-1.348;2023-09-18T05:44:35;18.80;99.90
4687;DHT22;2357;47.316;-1.348;2023-09-18T05:47:00;18.70;99.90
4687;DHT22;2357;47.316;-1.348;2023-09-18T05:49:29;18.80;99.90
4687;DHT22;2357;47.316;-1.348;2023-09-18T05:51:55;18.80;99.90
4687;DHT22;2357;47.316;-1.348;2023-09-18T05:54:21;18.90;99.90
4687;DHT22;2357;47.316;-1.348;2023-09-18T05:56:46;18.80;99.90
4687;DHT22;2357;47.316;-1.348;2023-09-18T05:59:13;18.80;99.90
4687;DHT22;2357;47.316;-1.348;2023-09-18T06:01:41;18.80;99.90
4687;DHT22;2357;47.316;-1.348;2023-09-18T06:04:06;18.80;99.90
4687;DHT22;2357;47.316;-1.348;2023-09-18T06:06:32;18.90;99.90
4687;DHT22;2357;47.316;-1.348;2023-09-18T06:08:58;18.90;99.90
4687;DHT22;2357;47.316;-1.348;2023-09-18T06:11:24;18.90;99.90
4687;DHT22;2357;47.316;-1.348;2023-09-18T06:13:49;19.00;99.90
4687;DHT22;2357;47.316;-1.348;2023-09-18T06:16:15;19.00;99.90
4687;DHT22;2357;47.316;-1.348;2023-09-18T06:18:41;19.10;99.90
4687;DHT22;2357;47.316;-1.348;2023-09-18T06:21:07;19.00;99.90
4687;DHT22;2357;47.316;-1.348;2023-09-18T06:23:32;19.10;99.90
4687;DHT22;2357;47.316;-1.348;2023-09-18T06:25:59;19.00;99.90
4687;DHT22;2357;47.316;-1.348;2023-09-18T06:28:25;19.00;99.90
4687;DHT22;2357;47.316;-1.348;2023-09-18T06:30:52;19.00;99.90
4687;DHT22;2357;47.316;-1.348;2023-09-18T06:33:19;19.10;99.90
4687;DHT22;2357;47.316;-1.348;2023-09-18T06:35:45;19.10;99.90
4687;DHT22;2357;47.316;-1.348;2023-09-18T06:38:10;19.20;99.90
4687;DHT22;2357;47.316;-1.348;2023-09-18T06:40:38;19.30;99.90
4687;DHT22;2357;47.316;-1.348;2023-09-18T06:43:04;19.20;99.90
4687;DHT22;2357;47.316;-1.348;2023-09-18T06:45:30;19.30;99.90
4687;DHT22;2357;47.316;-1.348;2023-09-18T06:47:56;19.30;99.90
4687;DHT22;2357;47.316;-1.348;2023-09-18T06:50:21;19.20;99.90
4687;DHT22;2357;47.316;-1.348;2023-09-18T06:52:47;19.20;99.90
4687;DHT22;2357;47.316;-1.348;2023-09-18T06:55:13;19.20;99.90
4687;DHT22;2357;47.316;-1.348;2023-09-18T06:57:39;19.20;99.90
4687;DHT22;2357;47.316;-1.348;2023-09-18T07:00:06;19.20;99.90
4687;DHT22;2357;47.316;-1.348;2023-09-18T07:02:32;19.20;99.90
4687;DHT22;2357;47.316;-1.348;2023-09-18T07:04:58;19.30;99.90
4687;DHT22;2357;47.316;-1.348;2023-09-18T07:07:23;19.30;99.90
4687;DHT22;2357;47.316;-1.348;2023-09-18T07:09:51;19.40;99.90
4687;DHT22;2357;47.316;-1.348;2023-09-18T07:12:17;19.40;99.90
4687;DHT22;2357;47.316;-1.348;2023-09-18T07:14:46;19.50;99.90
4687;DHT22;2357;47.316;-1.348;2023-09-18T07:17:12;19.60;99.90
4687;DHT22;2357;47.316;-1.348;2023-09-18T07:19:38;19.60;99.90
4687;DHT22;2357;47.316;-1.348;2023-09-18T07:22:04;19.60;99.90
4687;DHT22;2357;47.316;-1.348;2023-09-18T07:24:29;19.70;99.90
4687;DHT22;2357;47.316;-1.348;2023-09-18T07:26:55;19.80;99.90
4687;DHT22;2357;47.316;-1.348;2023-09-18T07:29:22;19.80;99.90
4687;DHT22;2357;47.316;-1.348;2023-09-18T07:31:50;19.80;99.90
4687;DHT22;2357;47.316;-1.348;2023-09-18T07:34:16;19.80;99.90
4687;DHT22;2357;47.316;-1.348;2023-09-18T07:36:43;19.80;99.90
4687;DHT22;2357;47.316;-1.348;2023-09-18T07:39:09;19.90;99.90
4687;DHT22;2357;47.316;-1.348;2023-09-18T07:41:37;20.00;99.90
4687;DHT22;2357;47.316;-1.348;2023-09-18T07:44:03;19.90;99.90
4687;DHT22;2357;47.316;-1.348;2023-09-18T07:46:29;19.90;99.90
4687;DHT22;2357;47.316;-1.348;2023-09-18T07:48:54;19.90;99.90
4687;DHT22;2357;47.316;-1.348;2023-09-18T07:51:20;19.80;99.90
4687;DHT22;2357;47.316;-1.348;2023-09-18T07:53:46;19.70;99.90
4687;DHT22;2357;47.316;-1.348;2023-09-18T07:56:12;19.80;99.90
4687;DHT22;2357;47.316;-1.348;2023-09-18T07:58:37;19.70;99.90
4687;DHT22;2357;47.316;-1.348;2023-09-18T08:01:05;19.70;99.90
4687;DHT22;2357;47.316;-1.348;2023-09-18T08:03:31;19.70;99.90
4687;DHT22;2357;47.316;-1.348;2023-09-18T08:05:57;19.70;99.90
4687;DHT22;2357;47.316;-1.348;2023-09-18T08:08:23;19.70;99.90
4687;DHT22;2357;47.316;-1.348;2023-09-18T08:10:50;19.80;99.90
4687;DHT22;2357;47.316;-1.348;2023-09-18T08:13:16;19.90;99.90
4687;DHT22;2357;47.316;-1.348;2023-09-18T08:15:43;19.90;99.90
4687;DHT22;2357;47.316;-1.348;2023-09-18T08:18:09;20.00;99.90
4687;DHT22;2357;47.316;-1.348;2023-09-18T08:20:39;20.10;99.90
4687;DHT22;2357;47.316;-1.348;2023-09-18T08:23:05;20.20;99.90
4687;DHT22;2357;47.316;-1.348;2023-09-18T08:25:31;20.30;99.90
4687;DHT22;2357;47.316;-1.348;2023-09-18T08:27:58;20.40;99.90
4687;DHT22;2357;47.316;-1.348;2023-09-18T08:30:23;20.30;99.90
4687;DHT22;2357;47.316;-1.348;2023-09-18T08:32:50;20.40;99.90
4687;DHT22;2357;47.316;-1.348;2023-09-18T08:35:15;20.50;99.90
4687;DHT22;2357;47.316;-1.348;2023-09-18T08:37:42;20.50;99.90
4687;DHT22;2357;47.316;-1.348;2023-09-18T08:40:10;20.50;99.90
4687;DHT22;2357;47.316;-1.348;2023-09-18T08:42:39;20.60;99.90
4687;DHT22;2357;47.316;-1.348;2023-09-18T08:45:09;20.70;99.90
4687;DHT22;2357;47.316;-1.348;2023-09-18T08:47:38;20.80;99.90
4687;DHT22;2357;47.316;-1.348;2023-09-18T08:50:06;20.80;99.90
4687;DHT22;2357;47.316;-1.348;2023-09-18T08:52:34;20.80;99.90
4687;DHT22;2357;47.316;-1.348;2023-09-18T08:55:01;20.90;99.90
4687;DHT22;2357;47.316;-1.348;2023-09-18T08:57:28;20.80;99.90
4687;DHT22;2357;47.316;-1.348;2023-09-18T08:59:56;20.90;99.90
4687;DHT22;2357;47.316;-1.348;2023-09-18T09:02:23;20.90;99.90
4687;DHT22;2357;47.316;-1.348;2023-09-18T09:04:48;20.90;99.90
4687;DHT22;2357;47.316;-1.348;2023-09-18T09:07:14;20.90;99.90
4687;DHT22;2357;47.316;-1.348;2023-09-18T09:09:40;21.00;99.90
4687;DHT22;2357;47.316;-1.348;2023-09-18T09:12:07;21.20;99.90
4687;DHT22;2357;47.316;-1.348;2023-09-18T09:14:33;21.30;99.90
4687;DHT22;2357;47.316;-1.348;2023-09-18T09:16:59;21.40;99.90
4687;DHT22;2357;47.316;-1.348;2023-09-18T09:19:34;21.50;99.90
4687;DHT22;2357;47.316;-1.348;2023-09-18T09:22:04;21.40;99.90
4687;DHT22;2357;47.316;-1.348;2023-09-18T09:24:41;21.50;99.90
4687;DHT22;2357;47.316;-1.348;2023-09-18T09:27:08;21.50;99.90
4687;DHT22;2357;47.316;-1.348;2023-09-18T09:29:34;21.50;99.90
4687;DHT22;2357;47.316;-1.348;2023-09-18T09:32:17;21.50;99.90
4687;DHT22;2357;47.316;-1.348;2023-09-18T09:34:43;21.50;99.90
4687;DHT22;2357;47.316;-1.348;2023-09-18T09:37:10;21.60;99.90
4687;DHT22;2357;47.316;-1.348;2023-09-18T09:39:49;21.60;99.90
4687;DHT22;2357;47.316;-1.348;2023-09-18T09:42:19;21.60;99.90
4687;DHT22;2357;47.316;-1.348;2023-09-18T09:45:04;21.80;99.90
4687;DHT22;2357;47.316;-1.348;2023-09-18T09:47:35;22.10;99.90
4687;DHT22;2357;47.316;-1.348;2023-09-18T09:50:06;22.30;99.90
4687;DHT22;2357;47.316;-1.348;2023-09-18T09:52:33;22.50;99.90
4687;DHT22;2357;47.316;-1.348;2023-09-18T09:54:59;22.50;99.90
4687;DHT22;2357;47.316;-1.348;2023-09-18T09:57:25;22.50;99.90
4687;DHT22;2357;47.316;-1.348;2023-09-18T09:59:50;22.20;99.90
4687;DHT22;2357;47.316;-1.348;2023-09-18T10:02:17;22.00;99.90
4687;DHT22;2357;47.316;-1.348;2023-09-18T10:04:45;21.60;99.90
4687;DHT22;2357;47.316;-1.348;2023-09-18T10:07:15;21.30;99.90
4687;DHT22;2357;47.316;-1.348;2023-09-18T10:09:42;21.10;99.90
4687;DHT22;2357;47.316;-1.348;2023-09-18T10:12:14;20.70;99.90
4687;DHT22;2357;47.316;-1.348;2023-09-18T10:14:41;20.50;99.90
4687;DHT22;2357;47.316;-1.348;2023-09-18T10:17:18;20.10;99.90
4687;DHT22;2357;47.316;-1.348;2023-09-18T10:24:46;19.90;99.90
4687;DHT22;2357;47.316;-1.348;2023-09-18T10:27:15;20.00;99.90
4687;DHT22;2357;47.316;-1.348;2023-09-18T10:29:43;20.00;99.90
4687;DHT22;2357;47.316;-1.348;2023-09-18T10:32:13;20.00;99.90
4687;DHT22;2357;47.316;-1.348;2023-09-18T10:34:41;20.00;99.90
4687;DHT22;2357;47.316;-1.348;2023-09-18T10:37:10;20.10;99.90
4687;DHT22;2357;47.316;-1.348;2023-09-18T10:39:38;20.40;99.90
4687;DHT22;2357;47.316;-1.348;2023-09-18T10:42:09;20.60;99.90
4687;DHT22;2357;47.316;-1.348;2023-09-18T10:44:35;20.90;99.90
4687;DHT22;2357;47.316;-1.348;2023-09-18T10:47:03;21.20;99.90
4687;DHT22;2357;47.316;-1.348;2023-09-18T10:49:31;21.30;99.90
4687;DHT22;2357;47.316;-1.348;2023-09-18T10:51:57;21.30;99.90
4687;DHT22;2357;47.316;-1.348;2023-09-18T10:54:25;21.30;99.90
4687;DHT22;2357;47.316;-1.348;2023-09-18T10:56:52;21.40;99.90
4687;DHT22;2357;47.316;-1.348;2023-09-18T10:59:18;21.40;99.90
4687;DHT22;2357;47.316;-1.348;2023-09-18T11:01:44;21.50;99.90
4687;DHT22;2357;47.316;-1.348;2023-09-18T11:04:10;21.40;99.90
4687;DHT22;2357;47.316;-1.348;2023-09-18T11:07:21;21.40;99.90
4687;DHT22;2357;47.316;-1.348;2023-09-18T11:09:48;21.50;99.90
4687;DHT22;2357;47.316;-1.348;2023-09-18T11:12:17;21.60;99.90
4687;DHT22;2357;47.316;-1.348;2023-09-18T11:14:56;21.90;99.90
4687;DHT22;2357;47.316;-1.348;2023-09-18T11:20:05;21.90;99.90
4687;DHT22;2357;47.316;-1.348;2023-09-18T11:22:35;22.00;99.90
4687;DHT22;2357;47.316;-1.348;2023-09-18T11:27:56;22.30;99.90
4687;DHT22;2357;47.316;-1.348;2023-09-18T11:30:22;22.50;99.90
4687;DHT22;2357;47.316;-1.348;2023-09-18T11:32:49;22.80;99.90
4687;DHT22;2357;47.316;-1.348;2023-09-18T11:35:15;23.10;99.90
4687;DHT22;2357;47.316;-1.348;2023-09-18T11:37:44;22.90;99.90
4687;DHT22;2357;47.316;-1.348;2023-09-18T11:40:30;23.10;99.90
4687;DHT22;2357;47.316;-1.348;2023-09-18T11:43:23;23.10;99.90
4687;DHT22;2357;47.316;-1.348;2023-09-18T11:45:51;23.30;99.90
4687;DHT22;2357;47.316;-1.348;2023-09-18T11:48:18;23.20;99.90
4687;DHT22;2357;47.316;-1.348;2023-09-18T11:50:44;23.40;99.90
4687;DHT22;2357;47.316;-1.348;2023-09-18T11:53:11;23.60;99.90
4687;DHT22;2357;47.316;-1.348;2023-09-18T11:55:39;23.40;99.90
4687;DHT22;2357;47.316;-1.348;2023-09-18T11:58:06;23.30;99.90
4687;DHT22;2357;47.316;-1.348;2023-09-18T12:00:32;23.40;99.90
4687;DHT22;2357;47.316;-1.348;2023-09-18T12:02:57;23.40;99.90
4687;DHT22;2357;47.316;-1.348;2023-09-18T12:05:23;23.80;99.90
4687;DHT22;2357;47.316;-1.348;2023-09-18T12:07:51;23.90;99.90
4687;DHT22;2357;47.316;-1.348;2023-09-18T12:10:19;24.20;99.90
4687;DHT22;2357;47.316;-1.348;2023-09-18T12:12:46;24.20;99.90
4687;DHT22;2357;47.316;-1.348;2023-09-18T12:15:17;24.60;99.90
4687;DHT22;2357;47.316;-1.348;2023-09-18T12:17:43;24.30;99.90
4687;DHT22;2357;47.316;-1.348;2023-09-18T12:20:16;24.20;99.90
4687;DHT22;2357;47.316;-1.348;2023-09-18T12:22:49;24.40;99.90
4687;DHT22;2357;47.316;-1.348;2023-09-18T12:25:16;24.60;99.90
4687;DHT22;2357;47.316;-1.348;2023-09-18T12:27:45;24.90;99.90
4687;DHT22;2357;47.316;-1.348;2023-09-18T12:30:11;25.00;99.90
4687;DHT22;2357;47.316;-1.348;2023-09-18T12:32:38;25.30;99.90
4687;DHT22;2357;47.316;-1.348;2023-09-18T12:35:06;25.20;99.90
4687;DHT22;2357;47.316;-1.348;2023-09-18T12:37:39;25.10;99.90
4687;DHT22;2357;47.316;-1.348;2023-09-18T12:40:06;25.20;99.90
4687;DHT22;2357;47.316;-1.348;2023-09-18T12:42:39;25.40;99.90
4687;DHT22;2357;47.316;-1.348;2023-09-18T12:45:09;25.80;99.90
4687;DHT22;2357;47.316;-1.348;2023-09-18T12:47:35;26.00;99.90
4687;DHT22;2357;47.316;-1.348;2023-09-18T12:50:05;26.00;99.90
4687;DHT22;2357;47.316;-1.348;2023-09-18T12:52:32;25.00;99.90
4687;DHT22;2357;47.316;-1.348;2023-09-18T12:54:59;24.30;99.90
4687;DHT22;2357;47.316;-1.348;2023-09-18T12:57:27;23.90;99.90
4687;DHT22;2357;47.316;-1.348;2023-09-18T12:59:53;23.90;99.90
4687;DHT22;2357;47.316;-1.348;2023-09-18T13:02:20;24.40;99.90
4687;DHT22;2357;47.316;-1.348;2023-09-18T13:04:56;24.70;99.90
4687;DHT22;2357;47.316;-1.348;2023-09-18T13:07:23;25.00;99.90
4687;DHT22;2357;47.316;-1.348;2023-09-18T13:10:16;25.10;99.90
4687;DHT22;2357;47.316;-1.348;2023-09-18T13:12:51;25.40;99.90
4687;DHT22;2357;47.316;-1.348;2023-09-18T13:15:44;25.60;99.90
4687;DHT22;2357;47.316;-1.348;2023-09-18T13:18:13;25.60;99.90
4687;DHT22;2357;47.316;-1.348;2023-09-18T13:20:39;25.70;99.90
4687;DHT22;2357;47.316;-1.348;2023-09-18T13:23:08;25.70;99.90
4687;DHT22;2357;47.316;-1.348;2023-09-18T13:25:35;25.60;99.90
4687;DHT22;2357;47.316;-1.348;2023-09-18T13:28:02;25.60;99.90
4687;DHT22;2357;47.316;-1.348;2023-09-18T13:30:29;25.80;99.90
4687;DHT22;2357;47.316;-1.348;2023-09-18T13:33:11;25.40;99.90
4687;DHT22;2357;47.316;-1.348;2023-09-18T13:35:39;25.00;99.90
4687;DHT22;2357;47.316;-1.348;2023-09-18T13:38:06;25.00;99.90
4687;DHT22;2357;47.316;-1.348;2023-09-18T13:40:34;25.10;99.90
4687;DHT22;2357;47.316;-1.348;2023-09-18T13:43:01;24.80;99.90
4687;DHT22;2357;47.316;-1.348;2023-09-18T13:45:29;24.50;99.90
4687;DHT22;2357;47.316;-1.348;2023-09-18T13:47:55;24.30;99.90
4687;DHT22;2357;47.316;-1.348;2023-09-18T13:50:21;24.10;99.90
4687;DHT22;2357;47.316;-1.348;2023-09-18T13:52:46;24.50;99.90
4687;DHT22;2357;47.316;-1.348;2023-09-18T13:55:12;24.80;99.90
4687;DHT22;2357;47.316;-1.348;2023-09-18T13:57:38;24.70;99.90
4687;DHT22;2357;47.316;-1.348;2023-09-18T14:00:06;24.80;99.90
4687;DHT22;2357;47.316;-1.348;2023-09-18T14:02:34;25.20;99.90
4687;DHT22;2357;47.316;-1.348;2023-09-18T14:05:00;25.30;99.90
4687;DHT22;2357;47.316;-1.348;2023-09-18T14:07:26;25.20;99.90
4687;DHT22;2357;47.316;-1.348;2023-09-18T14:09:51;25.10;99.90
4687;DHT22;2357;47.316;-1.348;2023-09-18T14:12:17;25.20;99.90
4687;DHT22;2357;47.316;-1.348;2023-09-18T14:14:43;25.20;99.90
4687;DHT22;2357;47.316;-1.348;2023-09-18T14:17:10;25.20;99.90
4687;DHT22;2357;47.316;-1.348;2023-09-18T14:19:35;25.40;99.90
4687;DHT22;2357;47.316;-1.348;2023-09-18T14:22:06;25.60;99.90
4687;DHT22;2357;47.316;-1.348;2023-09-18T14:24:32;25.80;99.90
4687;DHT22;2357;47.316;-1.348;2023-09-18T14:27:00;25.80;99.90
4687;DHT22;2357;47.316;-1.348;2023-09-18T14:29:26;25.20;99.90
4687;DHT22;2357;47.316;-1.348;2023-09-18T14:31:52;24.80;99.90
4687;DHT22;2357;47.316;-1.348;2023-09-18T14:34:18;24.70;99.90
4687;DHT22;2357;47.316;-1.348;2023-09-18T14:36:44;24.40;99.90
4687;DHT22;2357;47.316;-1.348;2023-09-18T14:39:10;24.60;99.90
4687;DHT22;2357;47.316;-1.348;2023-09-18T14:41:37;25.00;99.90
4687;DHT22;2357;47.316;-1.348;2023-09-18T14:44:06;24.90;99.90
4687;DHT22;2357;47.316;-1.348;2023-09-18T14:46:34;24.70;99.90
4687;DHT22;2357;47.316;-1.348;2023-09-18T14:49:00;25.10;99.90
4687;DHT22;2357;47.316;-1.348;2023-09-18T14:51:27;25.30;99.90
4687;DHT22;2357;47.316;-1.348;2023-09-18T14:53:57;25.40;99.90
4687;DHT22;2357;47.316;-1.348;2023-09-18T14:56:23;25.20;99.90
4687;DHT22;2357;47.316;-1.348;2023-09-18T14:58:49;24.70;99.90
4687;DHT22;2357;47.316;-1.348;2023-09-18T15:01:20;24.30;99.90
4687;DHT22;2357;47.316;-1.348;2023-09-18T15:03:46;23.80;99.90
4687;DHT22;2357;47.316;-1.348;2023-09-18T15:06:13;23.70;99.90
4687;DHT22;2357;47.316;-1.348;2023-09-18T15:08:39;23.70;99.90
4687;DHT22;2357;47.316;-1.348;2023-09-18T15:11:05;23.60;99.90
4687;DHT22;2357;47.316;-1.348;2023-09-18T15:13:31;23.90;99.90
4687;DHT22;2357;47.316;-1.348;2023-09-18T15:15:57;23.90;99.90
4687;DHT22;2357;47.316;-1.348;2023-09-18T15:18:25;24.60;99.90
4687;DHT22;2357;47.316;-1.348;2023-09-18T15:20:50;25.10;99.90
4687;DHT22;2357;47.316;-1.348;2023-09-18T15:23:20;25.20;99.90
4687;DHT22;2357;47.316;-1.348;2023-09-18T15:25:47;25.30;99.90
4687;DHT22;2357;47.316;-1.348;2023-09-18T15:28:16;25.30;99.90
4687;DHT22;2357;47.316;-1.348;2023-09-18T15:30:43;25.00;99.90
4687;DHT22;2357;47.316;-1.348;2023-09-18T15:33:08;24.60;99.90
4687;DHT22;2357;47.316;-1.348;2023-09-18T15:35:34;24.50;99.90
4687;DHT22;2357;47.316;-1.348;2023-09-18T15:37:59;24.40;99.90
4687;DHT22;2357;47.316;-1.348;2023-09-18T15:40:26;24.50;99.90
4687;DHT22;2357;47.316;-1.348;2023-09-18T15:42:52;25.00;99.90
4687;DHT22;2357;47.316;-1.348;2023-09-18T15:45:17;24.60;99.90
4687;DHT22;2357;47.316;-1.348;2023-09-18T15:47:44;24.30;99.90
4687;DHT22;2357;47.316;-1.348;2023-09-18T15:50:11;23.90;99.90
4687;DHT22;2357;47.316;-1.348;2023-09-18T15:52:37;23.60;99.90
4687;DHT22;2357;47.316;-1.348;2023-09-18T15:55:03;23.60;99.90
4687;DHT22;2357;47.316;-1.348;2023-09-18T15:57:32;23.40;99.90